createdAt,value
2022-11-21T00:00:54.475Z,99804.38
2022-11-21T00:03:21.748Z,99802.16
2022-11-21T00:05:49.770Z,99802.09
2022-11-21T00:08:21.552Z,99795.06
2022-11-21T00:10:49.413Z,99791.19
2022-11-21T00:13:20.574Z,99782.09
2022-11-21T00:15:48.180Z,99786.63
2022-11-21T00:18:15.689Z,99777.97
2022-11-21T00:20:43.533Z,99782.19
2022-11-21T00:23:11.246Z,99775.63
2022-11-21T00:25:38.797Z,99770.31
2022-11-21T00:28:06.189Z,99772.66
2022-11-21T00:30:33.429Z,99772.72
2022-11-21T00:33:00.366Z,99775.56
2022-11-21T00:35:27.719Z,99774.66
2022-11-21T00:37:54.578Z,99770.44
2022-11-21T00:40:21.877Z,99767.00
2022-11-21T00:42:48.653Z,99764.44
2022-11-21T00:45:21.140Z,99756.66
2022-11-21T00:47:50.714Z,99758.38
2022-11-21T00:50:17.750Z,99749.00
2022-11-21T00:52:44.551Z,99751.56
2022-11-21T00:55:11.548Z,99750.59
2022-11-21T00:57:38.411Z,99753.34
2022-11-21T01:00:06.199Z,99755.25
2022-11-21T01:02:33.173Z,99756.31
2022-11-21T01:05:00.195Z,99752.34
2022-11-21T01:07:27.008Z,99748.31
2022-11-21T01:09:54.066Z,99753.63
2022-11-21T01:12:20.802Z,99753.03
2022-11-21T01:14:47.824Z,99743.34
2022-11-21T01:17:14.582Z,99745.78
2022-11-21T01:19:41.725Z,99754.41
2022-11-21T01:22:08.891Z,99744.91
2022-11-21T01:24:35.950Z,99740.59
2022-11-21T01:27:02.713Z,99737.78
2022-11-21T01:29:29.804Z,99736.47
2022-11-21T01:31:56.573Z,99738.19
2022-11-21T01:34:23.714Z,99739.69
2022-11-21T01:36:50.639Z,99739.47
2022-11-21T01:39:17.709Z,99727.97
2022-11-21T01:41:46.081Z,99731.84
2022-11-21T01:44:27.849Z,99727.78
2022-11-21T01:46:54.875Z,99719.31
2022-11-21T01:49:28.199Z,99720.06
2022-11-21T01:52:13.178Z,99732.16
2022-11-21T01:54:57.320Z,99726.31
2022-11-21T01:57:35.434Z,99715.81
2022-11-21T02:00:11.128Z,99723.53
2022-11-21T02:02:42.491Z,99716.47
2022-11-21T02:05:14.982Z,99715.78
2022-11-21T02:07:46.014Z,99728.88
2022-11-21T02:10:14.828Z,99725.13
2022-11-21T02:12:49.350Z,99733.00
2022-11-21T02:15:18.134Z,99731.00
2022-11-21T02:17:45.100Z,99724.81
2022-11-21T02:20:17.715Z,99720.00
2022-11-21T02:22:53.651Z,99711.53
2022-11-21T02:25:23.638Z,99714.38
2022-11-21T02:27:54.960Z,99707.88
2022-11-21T02:30:22.267Z,99707.19
2022-11-21T02:32:49.169Z,99712.31
2022-11-21T02:35:18.194Z,99706.31
2022-11-21T02:37:48.420Z,99710.25
2022-11-21T02:40:25.443Z,99704.41
2022-11-21T02:43:00.405Z,99689.72
2022-11-21T02:45:33.455Z,99709.59
2022-11-21T02:48:03.906Z,99710.56
2022-11-21T02:50:34.640Z,99699.16
2022-11-21T02:53:02.092Z,99703.34
2022-11-21T02:55:29.125Z,99705.84
2022-11-21T02:57:59.065Z,99706.13
2022-11-21T03:00:28.696Z,99701.84
2022-11-21T03:02:56.087Z,99697.50
2022-11-21T03:05:23.757Z,99706.19
2022-11-21T03:07:50.562Z,99717.34
2022-11-21T03:10:17.795Z,99716.47
2022-11-21T03:12:44.595Z,99716.59
2022-11-21T03:15:13.629Z,99715.66
2022-11-21T03:17:41.867Z,99714.69
2022-11-21T03:20:09.481Z,99710.47
2022-11-21T03:22:36.309Z,99714.00
2022-11-21T03:25:03.659Z,99708.84
2022-11-21T03:27:30.366Z,99706.25
2022-11-21T03:29:57.391Z,99696.94
2022-11-21T03:32:24.180Z,99691.75
2022-11-21T03:34:51.262Z,99695.88
2022-11-21T03:37:18.049Z,99688.31
2022-11-21T03:39:45.168Z,99682.13
2022-11-21T03:42:11.876Z,99687.47
2022-11-21T03:44:38.944Z,99678.19
2022-11-21T03:47:05.694Z,99685.81
2022-11-21T03:49:32.698Z,99686.03
2022-11-21T03:51:59.433Z,99678.31
2022-11-21T03:54:26.798Z,99676.72
2022-11-21T03:56:54.042Z,99675.72
2022-11-21T03:59:21.133Z,99662.38
2022-11-21T04:01:47.908Z,99656.34
2022-11-21T04:04:15.037Z,99659.84
2022-11-21T04:06:41.766Z,99660.59
2022-11-21T04:09:08.878Z,99656.09
2022-11-21T04:11:35.615Z,99665.44
2022-11-21T04:14:02.668Z,99657.03
2022-11-21T04:16:29.439Z,99658.63
2022-11-21T04:18:56.513Z,99659.38
2022-11-21T04:21:23.289Z,99651.34
2022-11-21T04:23:50.337Z,99656.81
2022-11-21T04:26:17.085Z,99651.50
2022-11-21T04:28:44.135Z,99649.91
2022-11-21T04:31:11.550Z,99645.63
2022-11-21T04:33:39.559Z,99637.75
2022-11-21T04:36:09.248Z,99636.31
2022-11-21T04:38:36.643Z,99639.84
2022-11-21T04:41:03.692Z,99642.41
2022-11-21T04:43:30.790Z,99635.47
2022-11-21T04:45:57.548Z,99630.13
2022-11-21T04:48:24.856Z,99630.59
2022-11-21T04:50:51.660Z,99633.94
2022-11-21T04:53:18.713Z,99633.94
2022-11-21T04:55:45.429Z,99634.50
2022-11-21T04:58:12.485Z,99621.78
2022-11-21T05:00:39.238Z,99612.34
2022-11-21T05:03:06.966Z,99623.81
2022-11-21T05:05:34.029Z,99622.88
2022-11-21T05:08:01.106Z,99617.53
2022-11-21T05:10:28.123Z,99624.94
2022-11-21T05:13:18.042Z,99624.81
2022-11-21T05:15:44.878Z,99625.47
2022-11-21T05:18:12.285Z,99624.56
2022-11-21T05:20:39.156Z,99624.72
2022-11-21T05:23:06.199Z,99630.94
2022-11-21T05:25:32.991Z,99620.28
2022-11-21T05:28:00.027Z,99622.63
2022-11-21T05:30:26.841Z,99615.47
2022-11-21T05:32:53.885Z,99616.28
2022-11-21T05:35:20.623Z,99614.03
2022-11-21T05:37:47.729Z,99611.50
2022-11-21T05:40:14.541Z,99611.50
2022-11-21T05:43:01.318Z,99611.44
2022-11-21T05:45:28.135Z,99605.31
2022-11-21T05:47:55.153Z,99597.97
2022-11-21T05:50:21.979Z,99611.94
2022-11-21T05:52:52.046Z,99620.75
2022-11-21T05:55:18.811Z,99618.25
2022-11-21T05:57:45.858Z,99607.38
2022-11-21T06:00:13.233Z,99612.97
2022-11-21T06:02:59.062Z,99613.72
2022-11-21T06:05:25.818Z,99609.88
2022-11-21T06:07:52.852Z,99600.56
2022-11-21T06:10:19.583Z,99605.78
2022-11-21T06:12:46.582Z,99614.84
2022-11-21T06:15:13.346Z,99613.31
2022-11-21T06:17:40.389Z,99618.59
2022-11-21T06:20:07.841Z,99604.19
2022-11-21T06:22:34.847Z,99608.13
2022-11-21T06:25:01.626Z,99613.97
2022-11-21T06:27:29.660Z,99614.03
2022-11-21T06:29:56.444Z,99623.50
2022-11-21T06:32:23.551Z,99627.16
2022-11-21T06:34:50.314Z,99628.84
2022-11-21T06:37:17.346Z,99622.59
2022-11-21T06:39:44.058Z,99617.41
2022-11-21T06:42:11.075Z,99624.41
2022-11-21T06:44:37.846Z,99631.22
2022-11-21T06:47:04.893Z,99631.91
2022-11-21T06:49:31.680Z,99637.09
2022-11-21T06:51:58.682Z,99650.91
2022-11-21T06:54:25.428Z,99640.81
2022-11-21T06:56:53.012Z,99646.00
2022-11-21T06:59:19.769Z,99658.03
2022-11-21T07:01:46.792Z,99657.94
2022-11-21T07:04:13.537Z,99664.44
2022-11-21T07:06:40.577Z,99664.59
2022-11-21T07:09:32.367Z,99666.13
2022-11-21T07:11:55.873Z,99664.00
2022-11-21T07:14:22.587Z,99664.38
2022-11-21T07:16:49.594Z,99665.16
2022-11-21T07:19:16.359Z,99666.78
2022-11-21T07:21:43.469Z,99667.63
2022-11-21T07:24:10.349Z,99671.75
2022-11-21T07:26:37.377Z,99667.53
2022-11-21T07:29:04.175Z,99665.06
2022-11-21T07:31:31.181Z,99662.00
2022-11-21T07:33:59.051Z,99660.38
2022-11-21T07:36:26.136Z,99660.31
2022-11-21T07:38:52.902Z,99667.25
2022-11-21T07:41:22.914Z,99669.00
2022-11-21T07:43:49.693Z,99672.69
2022-11-21T07:46:16.713Z,99665.03
2022-11-21T07:48:43.459Z,99670.25
2022-11-21T07:51:11.182Z,99672.94
2022-11-21T07:53:38.016Z,99679.81
2022-11-21T07:56:05.287Z,99674.00
2022-11-21T07:58:32.017Z,99680.56
2022-11-21T08:00:59.069Z,99680.63
2022-11-21T08:03:25.785Z,99687.78
2022-11-21T08:05:52.864Z,99691.84
2022-11-21T08:08:19.604Z,99692.41
2022-11-21T08:10:47.083Z,99685.69
2022-11-21T08:13:14.299Z,99694.66
2022-11-21T08:15:41.465Z,99688.34
2022-11-21T08:18:13.497Z,99691.66
2022-11-21T08:20:41.008Z,99696.91
2022-11-21T08:23:08.094Z,99680.19
2022-11-21T08:25:37.698Z,99688.72
2022-11-21T08:28:05.774Z,99684.63
2022-11-21T08:30:33.712Z,99694.34
2022-11-21T08:33:01.017Z,99694.28
2022-11-21T08:35:29.127Z,99700.19
2022-11-21T08:38:00.093Z,99701.34
2022-11-21T08:40:29.308Z,99696.66
2022-11-21T08:42:59.949Z,99699.06
2022-11-21T08:45:27.010Z,99700.72
2022-11-21T08:47:54.630Z,99708.09
2022-11-21T08:50:22.860Z,99718.25
2022-11-21T08:52:49.815Z,99717.94
2022-11-21T08:55:16.998Z,99703.66
2022-11-21T08:57:43.751Z,99707.06
2022-11-21T09:00:12.703Z,99710.53
2022-11-21T09:02:39.503Z,99713.31
2022-11-21T09:05:07.085Z,99714.94
2022-11-21T09:07:33.864Z,99711.84
2022-11-21T09:10:00.946Z,99706.91
2022-11-21T09:12:27.749Z,99712.75
2022-11-21T09:15:13.540Z,99707.63
2022-11-21T09:18:00.507Z,99697.34
2022-11-21T09:20:27.604Z,99695.97
2022-11-21T09:22:54.498Z,99696.75
2022-11-21T09:25:21.527Z,99704.50
2022-11-21T09:27:48.240Z,99702.09
2022-11-21T09:30:16.108Z,99694.47
2022-11-21T09:32:42.854Z,99697.94
2022-11-21T09:35:09.898Z,99697.28
2022-11-21T09:37:40.406Z,99695.25
2022-11-21T09:40:10.539Z,99698.50
2022-11-21T09:43:06.367Z,99700.84
2022-11-21T09:45:37.341Z,99706.63
2022-11-21T09:48:11.690Z,99709.03
2022-11-21T09:50:50.725Z,99709.66
2022-11-21T09:53:37.806Z,99709.78
2022-11-21T09:56:07.075Z,99711.19
2022-11-21T09:58:49.002Z,99706.16
2022-11-21T10:01:17.510Z,99705.16
2022-11-21T10:03:47.441Z,99704.88
2022-11-21T10:06:21.794Z,99700.53
2022-11-21T10:09:03.746Z,99707.97
2022-11-21T10:12:00.909Z,99698.84
2022-11-21T10:15:01.997Z,99704.09
2022-11-21T10:17:56.607Z,99694.88
2022-11-21T10:21:01.017Z,99691.94
2022-11-21T10:23:36.879Z,99691.03
2022-11-21T10:26:35.910Z,99687.59
2022-11-21T10:29:24.049Z,99681.56
2022-11-21T10:31:52.450Z,99672.81
2022-11-21T10:34:22.855Z,99666.28
2022-11-21T10:36:57.784Z,99671.50
2022-11-21T10:39:38.600Z,99664.44
2022-11-21T10:42:45.158Z,99656.91
2022-11-21T10:45:17.343Z,99658.19
2022-11-21T10:47:46.289Z,99665.06
2022-11-21T10:50:31.403Z,99655.66
2022-11-21T10:53:36.497Z,99655.56
2022-11-21T10:56:12.241Z,99654.25
2022-11-21T10:58:46.258Z,99661.88
2022-11-21T11:01:31.341Z,99654.88
2022-11-21T11:07:00.647Z,99642.75
2022-11-21T11:09:31.691Z,99644.44
2022-11-21T11:12:49.130Z,99648.78
2022-11-21T11:15:24.858Z,99649.41
2022-11-21T11:17:57.741Z,99640.25
2022-11-21T11:20:32.809Z,99637.16
2022-11-21T11:22:59.854Z,99636.06
2022-11-21T11:25:26.806Z,99636.09
2022-11-21T11:27:53.897Z,99626.38
2022-11-21T11:30:21.394Z,99629.25
2022-11-21T11:32:48.443Z,99615.03
2022-11-21T11:35:22.167Z,99619.56
2022-11-21T11:38:01.387Z,99611.31
2022-11-21T11:40:42.472Z,99607.72
2022-11-21T11:43:40.533Z,99604.22
2022-11-21T11:46:48.027Z,99604.91
2022-11-21T11:49:53.020Z,99591.56
2022-11-21T11:52:22.191Z,99581.81
2022-11-21T11:54:58.792Z,99579.50
2022-11-21T11:57:30.245Z,99581.16
2022-11-21T12:00:08.037Z,99583.19
2022-11-21T12:03:06.618Z,99575.41
2022-11-21T12:05:34.690Z,99576.31
2022-11-21T12:08:41.518Z,99573.22
2022-11-21T12:11:52.405Z,99570.72
2022-11-21T12:14:55.969Z,99562.28
2022-11-21T12:17:33.662Z,99552.59
2022-11-21T12:20:05.338Z,99554.66
2022-11-21T12:22:32.432Z,99551.38
2022-11-21T12:24:59.159Z,99544.47
2022-11-21T12:27:31.923Z,99543.22
2022-11-21T12:30:20.521Z,99533.94
2022-11-21T12:33:09.561Z,99544.56
2022-11-21T12:35:48.333Z,99533.38
2022-11-21T12:38:46.910Z,99530.47
2022-11-21T12:41:51.034Z,99528.00
2022-11-21T12:44:33.070Z,99539.06
2022-11-21T12:47:53.652Z,99538.22
2022-11-21T12:50:48.404Z,99536.47
2022-11-21T12:53:41.073Z,99534.28
2022-11-21T12:56:18.482Z,99539.06
2022-11-21T12:58:50.620Z,99531.28
2022-11-21T13:01:30.718Z,99534.47
2022-11-21T13:04:01.974Z,99533.44
2022-11-21T13:06:40.387Z,99531.69
2022-11-21T13:09:13.078Z,99528.66
2022-11-21T13:12:09.936Z,99523.06
2022-11-21T13:15:00.625Z,99527.50
2022-11-21T13:17:49.563Z,99534.91
2022-11-21T13:20:24.347Z,99534.25
2022-11-21T13:22:56.435Z,99538.22
2022-11-21T13:25:32.292Z,99543.72
2022-11-21T13:28:12.044Z,99546.66
2022-11-21T13:30:55.057Z,99533.44
2022-11-21T13:33:37.418Z,99526.78
2022-11-21T13:36:10.915Z,99546.50
2022-11-21T13:39:07.655Z,99540.66
2022-11-21T13:41:53.029Z,99532.28
2022-11-21T13:44:33.036Z,99534.38
2022-11-21T13:47:14.762Z,99529.53
2022-11-21T13:49:44.806Z,99533.13
2022-11-21T13:52:20.273Z,99536.44
2022-11-21T13:55:07.206Z,99541.59
2022-11-21T13:58:11.618Z,99540.84
2022-11-21T14:00:38.542Z,99542.66
2022-11-21T14:03:28.383Z,99542.00
2022-11-21T14:06:07.473Z,99538.22
2022-11-21T14:08:34.748Z,99531.94
2022-11-21T14:11:36.670Z,99538.16
2022-11-21T14:14:03.425Z,99536.84
2022-11-21T14:16:41.344Z,99530.00
2022-11-21T14:19:14.946Z,99536.06
2022-11-21T14:21:45.492Z,99540.25
2022-11-21T14:24:20.048Z,99536.31
2022-11-21T14:26:50.987Z,99541.00
2022-11-21T14:29:22.728Z,99541.38
2022-11-21T14:31:50.467Z,99539.63
2022-11-21T14:34:30.694Z,99538.00
2022-11-21T14:37:01.056Z,99536.44
2022-11-21T14:39:40.938Z,99533.22
2022-11-21T14:42:16.425Z,99541.50
2022-11-21T14:44:44.081Z,99546.28
2022-11-21T14:47:25.943Z,99548.69
2022-11-21T14:49:55.425Z,99553.06
2022-11-21T14:52:31.681Z,99553.72
2022-11-21T14:57:52.745Z,99555.06
2022-11-21T15:03:22.471Z,99563.81
2022-11-21T15:06:08.301Z,99565.88
2022-11-21T15:09:18.379Z,99562.03
2022-11-21T15:11:33.380Z,99572.56
2022-11-21T15:14:16.385Z,99570.34
2022-11-21T15:16:47.875Z,99570.44
2022-11-21T15:19:24.648Z,99572.84
2022-11-21T15:21:54.258Z,99568.03
2022-11-21T15:24:30.403Z,99570.72
2022-11-21T15:26:58.565Z,99579.78
2022-11-21T15:29:25.623Z,99581.97
2022-11-21T15:32:14.089Z,99578.63
2022-11-21T15:34:43.115Z,99580.84
2022-11-21T15:37:17.140Z,99580.84
2022-11-21T15:39:50.189Z,99588.78
2022-11-21T15:42:32.060Z,99582.25
2022-11-21T15:45:19.741Z,99593.63
2022-11-21T15:47:47.527Z,99602.00
2022-11-21T15:50:15.292Z,99605.81
2022-11-21T15:52:49.815Z,99602.19
2022-11-21T15:55:25.821Z,99603.50
2022-11-21T15:57:52.621Z,99600.66
2022-11-21T16:00:19.707Z,99602.50
2022-11-21T16:02:47.345Z,99590.06
2022-11-21T16:05:15.913Z,99593.53
2022-11-21T16:07:42.927Z,99600.66
2022-11-21T16:10:18.328Z,99596.84
2022-11-21T16:12:48.516Z,99581.97
2022-11-21T16:15:15.573Z,99589.72
2022-11-21T16:17:42.296Z,99594.53
2022-11-21T16:20:09.580Z,99597.63
2022-11-21T16:22:36.364Z,99587.41
2022-11-21T16:25:03.614Z,99587.03
2022-11-21T16:27:32.492Z,99574.19
2022-11-21T16:29:59.582Z,99579.97
2022-11-21T16:32:26.625Z,99577.50
2022-11-21T16:34:54.754Z,99574.97
2022-11-21T16:37:21.508Z,99573.28
2022-11-21T16:39:52.070Z,99574.84
2022-11-21T16:42:19.692Z,99572.44
2022-11-21T16:44:48.143Z,99576.75
2022-11-21T16:47:15.280Z,99562.13
2022-11-21T16:49:48.437Z,99568.56
2022-11-21T16:52:16.226Z,99573.97
2022-11-21T16:54:43.288Z,99577.03
2022-11-21T16:57:10.086Z,99568.34
2022-11-21T16:59:37.323Z,99565.88
2022-11-21T17:02:04.716Z,99569.72
2022-11-21T17:04:32.115Z,99573.41
2022-11-21T17:07:00.806Z,99575.53
2022-11-21T17:09:27.926Z,99579.09
2022-11-21T17:11:57.620Z,99573.31
2022-11-21T17:14:24.755Z,99586.16
2022-11-21T17:16:51.626Z,99591.22
2022-11-21T17:19:18.941Z,99594.75
2022-11-21T17:21:45.679Z,99590.44
2022-11-21T17:24:13.560Z,99583.34
2022-11-21T17:26:40.388Z,99593.84
2022-11-21T17:29:07.770Z,99596.59
2022-11-21T17:31:34.542Z,99601.03
2022-11-21T17:34:01.886Z,99602.56
2022-11-21T17:36:30.395Z,99607.16
2022-11-21T17:38:57.697Z,99607.47
2022-11-21T17:41:25.615Z,99600.19
2022-11-21T17:43:57.461Z,99599.66
2022-11-21T17:46:25.614Z,99599.72
2022-11-21T17:48:57.316Z,99604.09
2022-11-21T17:51:30.151Z,99600.63
2022-11-21T17:53:57.876Z,99601.28
2022-11-21T17:56:26.817Z,99599.59
2022-11-21T17:58:53.941Z,99602.25
2022-11-21T18:01:21.139Z,99607.28
2022-11-21T18:04:13.578Z,99600.50
2022-11-21T18:06:41.747Z,99597.78
2022-11-21T18:09:11.271Z,99607.16
2022-11-21T18:11:40.602Z,99606.50
2022-11-21T18:14:10.255Z,99601.28
2022-11-21T18:16:39.028Z,99594.50
2022-11-21T18:19:06.472Z,99607.19
2022-11-21T18:21:38.171Z,99597.34
2022-11-21T18:24:05.477Z,99598.38
2022-11-21T18:26:34.526Z,99591.31
2022-11-21T18:31:49.530Z,99582.56
2022-11-21T18:34:16.610Z,99593.56
2022-11-21T18:36:43.434Z,99581.78
2022-11-21T18:39:14.518Z,99581.69
2022-11-21T18:41:42.812Z,99593.59
2022-11-21T18:44:11.483Z,99588.84
2022-11-21T18:46:40.392Z,99595.09
2022-11-21T18:49:08.424Z,99591.47
2022-11-21T18:51:36.480Z,99588.28
2022-11-21T18:54:08.683Z,99600.84
2022-11-21T18:56:37.481Z,99597.56
2022-11-21T18:59:06.024Z,99588.84
2022-11-21T19:01:34.677Z,99589.50
2022-11-21T19:04:04.922Z,99594.66
2022-11-21T19:06:32.141Z,99582.91
2022-11-21T19:08:59.400Z,99590.13
2022-11-21T19:11:28.579Z,99580.31
2022-11-21T19:13:56.607Z,99586.91
2022-11-21T19:16:26.339Z,99581.81
2022-11-21T19:21:42.017Z,99591.38
2022-11-21T19:24:13.831Z,99588.00
2022-11-21T19:26:41.479Z,99593.31
2022-11-21T19:29:09.188Z,99592.03
2022-11-21T19:31:41.057Z,99597.38
2022-11-21T19:34:16.001Z,99595.03
2022-11-21T19:36:43.393Z,99594.41
2022-11-21T19:39:11.121Z,99593.72
2022-11-21T19:41:38.008Z,99604.09
2022-11-21T19:44:05.268Z,99595.59
2022-11-21T19:46:38.142Z,99599.78
2022-11-21T19:49:06.566Z,99601.28
2022-11-21T19:51:36.582Z,99602.22
2022-11-21T19:54:05.402Z,99604.00
2022-11-21T19:56:32.871Z,99614.97
2022-11-21T19:58:59.907Z,99603.13
2022-11-21T20:01:31.664Z,99607.53
2022-11-21T20:04:00.756Z,99610.00
2022-11-21T20:06:33.363Z,99609.28
2022-11-21T20:09:06.975Z,99617.34
2022-11-21T20:11:34.747Z,99616.88
2022-11-21T20:14:03.854Z,99616.19
2022-11-21T20:16:41.902Z,99619.47
2022-11-21T20:19:12.238Z,99627.16
2022-11-21T20:21:39.394Z,99625.63
2022-11-21T20:24:06.822Z,99613.88
2022-11-21T20:26:34.581Z,99611.13
2022-11-21T20:29:02.646Z,99612.41
2022-11-21T20:31:34.446Z,99613.19
2022-11-21T20:34:06.475Z,99611.06
2022-11-21T20:36:38.676Z,99607.97
2022-11-21T20:39:08.804Z,99605.75
2022-11-21T20:41:36.658Z,99603.16
2022-11-21T20:46:57.500Z,99613.78
2022-11-21T20:49:24.608Z,99610.28
2022-11-21T20:54:38.699Z,99608.38
2022-11-21T20:57:09.189Z,99606.50
2022-11-21T20:59:40.195Z,99604.31
2022-11-21T21:02:11.656Z,99602.84
2022-11-21T21:04:38.791Z,99605.41
2022-11-21T21:07:05.599Z,99594.22
2022-11-21T21:09:32.707Z,99592.13
2022-11-21T21:11:59.488Z,99584.09
2022-11-21T21:14:26.480Z,99585.53
2022-11-21T21:16:53.251Z,99586.56
2022-11-21T21:19:20.668Z,99587.47
2022-11-21T21:21:47.994Z,99573.13
2022-11-21T21:24:15.210Z,99571.34
2022-11-21T21:26:45.418Z,99570.94
2022-11-21T21:29:17.891Z,99564.88
2022-11-21T21:31:50.563Z,99558.56
2022-11-21T21:34:22.793Z,99548.25
2022-11-21T21:36:52.547Z,99546.41
2022-11-21T21:39:19.666Z,99556.25
2022-11-21T21:41:49.272Z,99546.31
2022-11-21T21:44:16.851Z,99554.19
2022-11-21T21:46:43.889Z,99536.91
2022-11-21T21:49:10.950Z,99542.63
2022-11-21T21:51:38.062Z,99551.38
2022-11-21T21:54:05.007Z,99547.22
2022-11-21T21:56:32.929Z,99550.28
2022-11-21T21:58:59.823Z,99547.59
2022-11-21T22:01:29.403Z,99550.88
2022-11-21T22:03:58.891Z,99550.53
2022-11-21T22:06:28.319Z,99546.22
2022-11-21T22:08:56.034Z,99550.41
2022-11-21T22:11:25.841Z,99547.81
2022-11-21T22:14:02.421Z,99556.72
2022-11-21T22:16:30.205Z,99556.47
2022-11-21T22:18:57.472Z,99547.09
2022-11-21T22:21:28.030Z,99551.59
2022-11-21T22:24:24.348Z,99558.28
2022-11-21T22:26:43.622Z,99566.22
2022-11-21T22:29:10.414Z,99560.94
2022-11-21T22:31:37.581Z,99561.75
2022-11-21T22:34:04.697Z,99573.38
2022-11-21T22:36:31.691Z,99575.94
2022-11-21T22:38:58.415Z,99569.16
2022-11-21T22:41:27.371Z,99572.34
2022-11-21T22:43:59.848Z,99580.75
2022-11-21T22:46:28.127Z,99578.16
2022-11-21T22:48:58.301Z,99574.69
2022-11-21T22:51:31.860Z,99574.81
2022-11-21T22:54:01.142Z,99579.97
2022-11-21T22:56:28.238Z,99571.59
2022-11-21T22:58:56.064Z,99569.47
2022-11-21T23:01:25.321Z,99566.53
2022-11-21T23:03:52.986Z,99571.94
2022-11-21T23:06:23.747Z,99568.03
2022-11-21T23:08:52.256Z,99577.97
2022-11-21T23:11:24.488Z,99564.47
2022-11-21T23:13:52.322Z,99561.03
2022-11-21T23:16:20.809Z,99553.69
2022-11-21T23:18:48.436Z,99555.28
2022-11-21T23:21:15.586Z,99550.06
2022-11-21T23:23:44.018Z,99541.31
2022-11-21T23:26:11.477Z,99545.50
2022-11-21T23:28:38.440Z,99543.03
2022-11-21T23:31:05.472Z,99534.38
2022-11-21T23:33:32.402Z,99526.44
2022-11-21T23:35:59.447Z,99523.03
2022-11-21T23:38:26.594Z,99524.19
2022-11-21T23:40:53.611Z,99523.97
2022-11-21T23:43:20.468Z,99528.41
2022-11-21T23:45:51.953Z,99527.69
2022-11-21T23:48:19.808Z,99535.69
2022-11-21T23:50:48.272Z,99536.09
2022-11-21T23:53:15.187Z,99528.28
2022-11-21T23:55:43.354Z,99516.00
2022-11-21T23:58:10.538Z,99524.59
